createdAt,value
2023-04-30T00:00:03.207Z,1021.32
2023-04-30T00:05:03.017Z,1021.34
2023-04-30T00:10:03.701Z,1021.35
2023-04-30T00:15:03.437Z,1021.36
2023-04-30T00:20:03.766Z,1021.39
2023-04-30T00:25:03.561Z,1021.52
2023-04-30T00:30:03.303Z,1021.6
2023-04-30T00:35:03.061Z,1021.63
2023-04-30T00:40:02.762Z,1021.65
2023-04-30T00:45:03.528Z,1021.68
2023-04-30T00:50:03.280Z,1021.77
2023-04-30T00:55:03.073Z,1021.81
2023-04-30T01:00:03.666Z,1021.86
2023-04-30T01:05:03.392Z,1021.93
2023-04-30T01:10:03.209Z,1021.99
2023-04-30T01:15:03.565Z,1022.04
2023-04-30T01:20:03.371Z,1022.14
2023-04-30T01:25:03.344Z,1022.19
2023-04-30T01:30:03.235Z,1022.29
2023-04-30T01:35:04.064Z,1022.31
2023-04-30T01:40:02.859Z,1022.44
2023-04-30T01:45:03.061Z,1022.4
2023-04-30T01:50:02.823Z,1022.44
2023-04-30T01:55:03.548Z,1022.51
2023-04-30T02:00:03.406Z,1022.57
2023-04-30T02:05:02.976Z,1022.63
2023-04-30T02:10:03.722Z,1022.69
2023-04-30T02:15:03.799Z,1022.68
2023-04-30T02:20:03.400Z,1022.75
2023-04-30T02:25:03.046Z,1022.82
2023-04-30T02:30:03.386Z,1022.82
2023-04-30T02:35:03.301Z,1022.81
2023-04-30T02:40:02.857Z,1022.92
2023-04-30T02:45:02.826Z,1022.93
2023-04-30T02:50:03.784Z,1022.93
2023-04-30T02:55:03.801Z,1022.94
2023-04-30T03:00:03.279Z,1022.98
2023-04-30T03:05:02.937Z,1022.92
2023-04-30T03:10:03.618Z,1023.03
2023-04-30T03:15:03.408Z,1023.12
2023-04-30T03:20:03.549Z,1023.1
2023-04-30T03:25:03.572Z,1023.13
2023-04-30T03:30:03.357Z,1023.22
2023-04-30T03:35:03.015Z,1023.23
2023-04-30T03:40:03.257Z,1023.33
2023-04-30T03:45:03.108Z,1023.43
2023-04-30T03:50:02.908Z,1023.51
2023-04-30T03:55:04.302Z,1023.53
2023-04-30T04:00:03.457Z,1023.68
2023-04-30T04:05:03.259Z,1023.65
2023-04-30T04:10:03.100Z,1023.72
2023-04-30T04:15:02.943Z,1023.74
2023-04-30T04:20:03.740Z,1023.86
2023-04-30T04:25:03.537Z,1023.88
2023-04-30T04:30:03.368Z,1023.93
2023-04-30T04:35:03.098Z,1023.94
2023-04-30T04:40:03.743Z,1023.89
2023-04-30T04:45:03.913Z,1024.06
2023-04-30T04:50:03.451Z,1024
2023-04-30T04:55:03.530Z,1024.09
2023-04-30T05:00:03.362Z,1024.17
2023-04-30T05:05:03.133Z,1024.28
2023-04-30T05:10:03.326Z,1024.33
2023-04-30T05:15:03.153Z,1024.36
2023-04-30T05:20:03.621Z,1024.47
2023-04-30T05:25:03.389Z,1024.48
2023-04-30T05:30:03.164Z,1024.53
2023-04-30T05:35:02.944Z,1024.58
2023-04-30T05:40:03.689Z,1024.65
2023-04-30T05:45:02.984Z,1024.71
2023-04-30T05:50:03.529Z,1024.71
2023-04-30T05:55:03.829Z,1024.7
2023-04-30T06:00:03.053Z,1024.7
2023-04-30T06:05:03.313Z,1024.75
2023-04-30T06:10:03.699Z,1024.75
2023-04-30T06:15:03.490Z,1024.79
2023-04-30T06:20:03.366Z,1024.84
2023-04-30T06:25:03.419Z,1024.78
2023-04-30T06:30:03.229Z,1024.92
2023-04-30T06:35:03.077Z,1025
2023-04-30T06:40:02.908Z,1024.95
2023-04-30T06:45:03.803Z,1024.9
2023-04-30T06:50:03.717Z,1024.88
2023-04-30T06:55:03.456Z,1024.88
2023-04-30T07:00:03.281Z,1024.93
2023-04-30T07:05:03.513Z,1024.81
2023-04-30T07:10:03.019Z,1024.87
2023-04-30T07:15:02.901Z,1024.79
2023-04-30T07:20:03.828Z,1024.98
2023-04-30T07:25:03.490Z,1025.04
2023-04-30T07:30:03.303Z,1025.01
2023-04-30T07:35:03.160Z,1024.93
2023-04-30T07:40:03.084Z,1024.9
2023-04-30T07:45:03.901Z,1024.93
2023-04-30T07:50:03.548Z,1025.01
2023-04-30T07:55:03.387Z,1024.97
2023-04-30T08:00:02.973Z,1025.06
2023-04-30T08:05:02.773Z,1024.95
2023-04-30T08:10:03.483Z,1024.96
2023-04-30T08:15:03.624Z,1024.89
2023-04-30T08:20:03.430Z,1024.94
2023-04-30T08:25:03.152Z,1024.98
2023-04-30T08:30:02.932Z,1024.94
2023-04-30T08:35:03.707Z,1024.93
2023-04-30T08:40:03.567Z,1024.96
2023-04-30T08:45:03.424Z,1024.97
2023-04-30T08:50:03.102Z,1024.93
2023-04-30T08:55:04.012Z,1025.03
2023-04-30T09:00:03.344Z,1025.06
2023-04-30T09:05:03.040Z,1025.12
2023-04-30T09:10:02.936Z,1025.1
2023-04-30T09:15:04.284Z,1024.97
2023-04-30T09:20:02.777Z,1024.97
2023-04-30T09:25:03.502Z,1024.95
2023-04-30T09:30:03.302Z,1024.98
2023-04-30T09:35:03.005Z,1024.96
2023-04-30T09:40:03.563Z,1024.9
2023-04-30T09:45:03.069Z,1024.93
2023-04-30T09:50:03.724Z,1024.89
2023-04-30T09:55:03.899Z,1024.88
2023-04-30T10:00:03.282Z,1024.87
2023-04-30T10:05:02.907Z,1024.93
2023-04-30T10:10:03.665Z,1024.79
2023-04-30T10:15:03.413Z,1024.74
2023-04-30T10:20:03.479Z,1024.71
2023-04-30T10:25:03.298Z,1024.67
2023-04-30T10:30:03.040Z,1024.55
2023-04-30T10:35:02.849Z,1024.5
2023-04-30T10:40:03.527Z,1024.48
2023-04-30T10:45:03.551Z,1024.43
2023-04-30T10:50:03.472Z,1024.55
2023-04-30T10:55:03.677Z,1024.43
2023-04-30T11:00:03.061Z,1024.36
2023-04-30T11:05:03.916Z,1024.27
2023-04-30T11:10:03.531Z,1024.26
2023-04-30T11:15:03.490Z,1024.26
2023-04-30T11:20:03.224Z,1024.21
2023-04-30T11:25:03.046Z,1024.21
2023-04-30T11:30:03.691Z,1024.2
2023-04-30T11:35:03.679Z,1024.03
2023-04-30T11:40:03.248Z,1024.05
2023-04-30T11:45:03.014Z,1024.07
2023-04-30T11:50:03.800Z,1024.07
2023-04-30T11:55:03.686Z,1023.95
2023-04-30T12:00:03.154Z,1023.97
2023-04-30T12:05:03.022Z,1023.88
2023-04-30T12:10:02.844Z,1023.82
2023-04-30T12:15:03.700Z,1023.9
2023-04-30T12:20:03.168Z,1023.83
2023-04-30T12:25:03.424Z,1023.88
2023-04-30T12:30:03.269Z,1023.81
2023-04-30T12:35:03.337Z,1023.73
2023-04-30T12:40:03.199Z,1023.86
2023-04-30T12:45:02.942Z,1023.8
2023-04-30T12:50:02.906Z,1023.88
2023-04-30T12:55:03.770Z,1023.83
2023-04-30T13:00:03.444Z,1023.85
2023-04-30T13:05:03.256Z,1023.74
2023-04-30T13:10:02.976Z,1023.62
2023-04-30T13:15:03.794Z,1023.67
2023-04-30T13:20:03.554Z,1023.66
2023-04-30T13:25:03.320Z,1023.59
2023-04-30T13:30:03.096Z,1023.5
2023-04-30T13:35:03.083Z,1023.43
2023-04-30T13:40:03.649Z,1023.49
2023-04-30T13:45:03.493Z,1023.48
2023-04-30T13:50:03.534Z,1023.34
2023-04-30T13:55:03.485Z,1023.34
2023-04-30T14:00:04.203Z,1023.27
2023-04-30T14:05:07.797Z,1023.24
2023-04-30T14:10:04.161Z,1023.2
2023-04-30T14:15:03.340Z,1023.17
2023-04-30T14:20:03.519Z,1023.1
2023-04-30T14:25:03.572Z,1023.17
2023-04-30T14:30:03.630Z,1023.14
2023-04-30T14:35:03.345Z,1023.14
2023-04-30T14:40:03.469Z,1023.04
2023-04-30T14:45:03.187Z,1023.02
2023-04-30T14:50:03.517Z,1023.02
2023-04-30T14:55:02.840Z,1022.86
2023-04-30T15:00:03.742Z,1022.89
2023-04-30T15:05:03.657Z,1022.85
2023-04-30T15:10:03.195Z,1022.89
2023-04-30T15:15:03.086Z,1022.82
2023-04-30T15:20:03.083Z,1022.88
2023-04-30T15:25:02.924Z,1022.83
2023-04-30T15:30:03.601Z,1022.84
2023-04-30T15:35:03.663Z,1022.88
2023-04-30T15:40:03.307Z,1022.82
2023-04-30T15:45:03.154Z,1022.78
2023-04-30T15:50:03.150Z,1022.8
2023-04-30T15:55:04.364Z,1022.76
2023-04-30T16:00:03.732Z,1022.73
2023-04-30T16:05:03.390Z,1022.67
2023-04-30T16:10:03.271Z,1022.71
2023-04-30T16:15:02.974Z,1022.69
2023-04-30T16:20:03.617Z,1022.64
2023-04-30T16:25:03.348Z,1022.65
2023-04-30T16:30:03.279Z,1022.52
2023-04-30T16:35:02.919Z,1022.52
2023-04-30T16:40:02.989Z,1022.49
2023-04-30T16:45:03.779Z,1022.55
2023-04-30T16:50:03.513Z,1022.55
2023-04-30T16:55:03.323Z,1022.45
2023-04-30T17:00:03.242Z,1022.44
2023-04-30T17:05:02.917Z,1022.41
2023-04-30T17:10:03.664Z,1022.38
2023-04-30T17:15:03.454Z,1022.43
2023-04-30T17:20:03.049Z,1022.41
2023-04-30T17:25:03.237Z,1022.38
2023-04-30T17:30:02.787Z,1022.45
2023-04-30T17:35:03.428Z,1022.42
2023-04-30T17:40:03.096Z,1022.42
2023-04-30T17:45:02.916Z,1022.36
2023-04-30T17:50:03.555Z,1022.44
2023-04-30T17:55:03.224Z,1022.42
2023-04-30T18:00:04.269Z,1022.52
2023-04-30T18:05:03.692Z,1022.44
2023-04-30T18:10:03.764Z,1022.36
2023-04-30T18:15:02.840Z,1022.4
2023-04-30T18:20:03.773Z,1022.37
2023-04-30T18:25:03.639Z,1022.32
2023-04-30T18:30:03.236Z,1022.42
2023-04-30T18:35:02.898Z,1022.43
2023-04-30T18:40:03.589Z,1022.41
2023-04-30T18:45:03.546Z,1022.46
2023-04-30T18:50:03.319Z,1022.47
2023-04-30T18:55:03.768Z,1022.57
2023-04-30T19:00:02.951Z,1022.52
2023-04-30T19:05:03.250Z,1022.66
2023-04-30T19:10:02.913Z,1022.57
2023-04-30T19:15:03.665Z,1022.59
2023-04-30T19:20:02.874Z,1022.65
2023-04-30T19:25:03.478Z,1022.64
2023-04-30T19:30:03.221Z,1022.65
2023-04-30T19:35:03.219Z,1022.7
2023-04-30T19:40:02.898Z,1022.77
2023-04-30T19:45:03.794Z,1022.61
2023-04-30T19:50:03.498Z,1022.62
2023-04-30T19:55:03.520Z,1022.65
2023-04-30T20:00:03.013Z,1022.73
2023-04-30T20:05:07.773Z,1022.74
2023-04-30T20:10:03.654Z,1022.7
2023-04-30T20:15:03.389Z,1022.7
2023-04-30T20:20:03.330Z,1022.83
2023-04-30T20:25:03.004Z,1022.74
2023-04-30T20:30:03.680Z,1022.72
2023-04-30T20:35:03.550Z,1022.74
2023-04-30T20:40:03.283Z,1022.75
2023-04-30T20:45:06.535Z,1022.7
2023-04-30T20:50:03.445Z,1022.7
2023-04-30T20:55:03.774Z,1022.65
2023-04-30T21:00:03.466Z,1022.67
2023-04-30T21:05:03.148Z,1022.66
2023-04-30T21:10:03.002Z,1022.57
2023-04-30T21:15:03.186Z,1022.59
2023-04-30T21:20:03.733Z,1022.55
2023-04-30T21:25:03.457Z,1022.54
2023-04-30T21:30:03.219Z,1022.57
2023-04-30T21:35:03.484Z,1022.49
2023-04-30T21:40:03.095Z,1022.5
2023-04-30T21:45:02.936Z,1022.55
2023-04-30T21:50:02.846Z,1022.43
2023-04-30T21:55:03.603Z,1022.42
2023-04-30T22:00:03.512Z,1022.48
2023-04-30T22:05:03.278Z,1022.52
2023-04-30T22:10:03.168Z,1022.55
2023-04-30T22:15:03.554Z,1022.39
2023-04-30T22:20:02.960Z,1022.42
2023-04-30T22:25:02.876Z,1022.37
2023-04-30T22:30:03.672Z,1022.29
2023-04-30T22:35:02.934Z,1022.35
2023-04-30T22:40:03.702Z,1022.22
2023-04-30T22:45:03.421Z,1022.24
2023-04-30T22:50:03.080Z,1022.25
2023-04-30T22:55:03.661Z,1022.19
2023-04-30T23:00:02.892Z,1022.11
2023-04-30T23:05:03.791Z,1022.16
2023-04-30T23:10:03.409Z,1022.09
2023-04-30T23:15:03.741Z,1022.15
2023-04-30T23:20:03.452Z,1022.07
2023-04-30T23:25:03.155Z,1022.09
2023-04-30T23:30:02.966Z,1022.18
2023-04-30T23:35:03.660Z,1022.13
2023-04-30T23:40:03.598Z,1022.15
2023-04-30T23:45:03.378Z,1022.08
2023-04-30T23:50:02.983Z,1022.15
2023-04-30T23:55:03.616Z,1022.02
